createdAt,value
2022-11-12T00:00:44.616Z,100.00
2022-11-12T00:03:11.772Z,100.00
2022-11-12T00:05:40.281Z,100.00
2022-11-12T00:08:07.311Z,100.00
2022-11-12T00:10:36.401Z,100.00
2022-11-12T00:13:07.067Z,100.00
2022-11-12T00:15:34.244Z,100.00
2022-11-12T00:18:01.851Z,100.00
2022-11-12T00:20:29.421Z,100.00
2022-11-12T00:22:56.458Z,100.00
2022-11-12T00:25:23.647Z,100.00
2022-11-12T00:27:50.732Z,100.00
2022-11-12T00:30:18.046Z,100.00
2022-11-12T00:32:45.075Z,100.00
2022-11-12T00:35:14.085Z,100.00
2022-11-12T00:37:41.579Z,100.00
2022-11-12T00:40:09.196Z,100.00
2022-11-12T00:42:37.057Z,100.00
2022-11-12T00:45:05.623Z,100.00
2022-11-12T00:47:33.227Z,100.00
2022-11-12T00:50:00.340Z,100.00
2022-11-12T00:52:27.472Z,100.00
2022-11-12T00:54:54.945Z,100.00
2022-11-12T00:57:22.030Z,100.00
2022-11-12T00:59:49.038Z,100.00
2022-11-12T01:02:16.152Z,100.00
2022-11-12T01:04:43.164Z,100.00
2022-11-12T01:07:10.643Z,100.00
2022-11-12T01:09:37.686Z,100.00
2022-11-12T01:12:04.773Z,100.00
2022-11-12T01:14:32.054Z,100.00
2022-11-12T01:16:59.083Z,100.00
2022-11-12T01:19:26.158Z,100.00
2022-11-12T01:21:53.450Z,100.00
2022-11-12T01:24:20.864Z,100.00
2022-11-12T01:26:48.020Z,100.00
2022-11-12T01:29:16.663Z,100.00
2022-11-12T01:31:44.376Z,100.00
2022-11-12T01:34:12.697Z,100.00
2022-11-12T01:36:40.061Z,100.00
2022-11-12T01:39:08.415Z,100.00
2022-11-12T01:41:36.844Z,100.00
2022-11-12T01:44:14.652Z,100.00
2022-11-12T01:46:44.472Z,100.00
2022-11-12T01:49:14.170Z,100.00
2022-11-12T01:51:42.547Z,100.00
2022-11-12T01:54:09.919Z,100.00
2022-11-12T01:56:39.496Z,100.00
2022-11-12T01:59:12.263Z,100.00
2022-11-12T02:01:40.538Z,100.00
2022-11-12T02:04:07.812Z,100.00
2022-11-12T02:06:34.965Z,100.00
2022-11-12T02:09:02.009Z,100.00
2022-11-12T02:11:29.184Z,100.00
2022-11-12T02:14:01.389Z,100.00
2022-11-12T02:16:30.484Z,100.00
2022-11-12T02:18:57.511Z,100.00
2022-11-12T02:21:25.943Z,100.00
2022-11-12T02:24:03.607Z,100.00
2022-11-12T02:26:34.208Z,100.00
2022-11-12T02:29:01.619Z,100.00
2022-11-12T02:31:29.050Z,100.00
2022-11-12T02:33:56.475Z,100.00
2022-11-12T02:36:23.560Z,100.00
2022-11-12T02:38:50.791Z,100.00
2022-11-12T02:41:17.990Z,100.00
2022-11-12T02:43:45.089Z,100.00
2022-11-12T02:46:12.205Z,100.00
2022-11-12T02:48:41.556Z,100.00
2022-11-12T02:51:11.026Z,100.00
2022-11-12T02:53:38.164Z,100.00
2022-11-12T02:56:05.301Z,100.00
2022-11-12T02:58:32.545Z,100.00
2022-11-12T03:00:59.969Z,100.00
2022-11-12T03:03:27.042Z,100.00
2022-11-12T03:05:55.309Z,100.00
2022-11-12T03:08:22.329Z,100.00
2022-11-12T03:10:50.201Z,100.00
2022-11-12T03:13:17.289Z,100.00
2022-11-12T03:15:49.387Z,100.00
2022-11-12T03:18:16.573Z,100.00
2022-11-12T03:20:43.650Z,100.00
2022-11-12T03:23:11.308Z,100.00
2022-11-12T03:25:42.001Z,100.00
2022-11-12T03:28:14.046Z,100.00
2022-11-12T03:30:41.660Z,100.00
2022-11-12T03:33:09.581Z,100.00
2022-11-12T03:35:36.897Z,100.00
2022-11-12T03:38:04.005Z,100.00
2022-11-12T03:40:31.228Z,100.00
2022-11-12T03:42:58.820Z,100.00
2022-11-12T03:45:26.547Z,100.00
2022-11-12T03:47:54.841Z,100.00
2022-11-12T03:50:22.890Z,100.00
2022-11-12T03:52:50.604Z,100.00
2022-11-12T03:55:18.192Z,100.00
2022-11-12T03:57:45.544Z,100.00
2022-11-12T04:00:13.000Z,100.00
2022-11-12T04:02:42.143Z,100.00
2022-11-12T04:05:28.114Z,100.00
2022-11-12T04:08:20.525Z,100.00
2022-11-12T04:10:49.740Z,100.00
2022-11-12T04:13:29.490Z,100.00
2022-11-12T04:16:19.974Z,100.00
2022-11-12T04:19:07.939Z,100.00
2022-11-12T04:21:50.843Z,100.00
2022-11-12T04:24:46.571Z,100.00
2022-11-12T04:27:14.741Z,100.00
2022-11-12T04:30:02.782Z,100.00
2022-11-12T04:32:30.314Z,100.00
2022-11-12T04:34:58.431Z,100.00
2022-11-12T04:37:26.050Z,100.00
2022-11-12T04:39:53.361Z,100.00
2022-11-12T04:42:38.833Z,100.00
2022-11-12T04:45:07.340Z,100.00
2022-11-12T04:47:39.053Z,100.00
2022-11-12T04:50:13.020Z,100.00
2022-11-12T04:52:41.074Z,100.00
2022-11-12T04:55:08.460Z,100.00
2022-11-12T04:57:35.781Z,100.00
2022-11-12T05:00:03.617Z,100.00
2022-11-12T05:02:31.600Z,100.00
2022-11-12T05:05:02.247Z,100.00
2022-11-12T05:07:29.544Z,100.00
2022-11-12T05:09:56.584Z,100.00
2022-11-12T05:12:23.626Z,100.00
2022-11-12T05:14:51.948Z,100.00
2022-11-12T05:17:19.622Z,100.00
2022-11-12T05:19:48.875Z,100.00
2022-11-12T05:22:33.663Z,100.00
2022-11-12T05:25:03.074Z,100.00
2022-11-12T05:27:30.242Z,100.00
2022-11-12T05:29:57.430Z,100.00
2022-11-12T05:32:24.573Z,100.00
2022-11-12T05:34:51.678Z,100.00
2022-11-12T05:37:18.866Z,100.00
2022-11-12T05:39:45.885Z,100.00
2022-11-12T05:42:14.059Z,100.00
2022-11-12T05:44:41.571Z,100.00
2022-11-12T05:47:08.881Z,100.00
2022-11-12T05:49:36.907Z,100.00
2022-11-12T05:52:04.214Z,100.00
2022-11-12T05:54:31.465Z,100.00
2022-11-12T05:56:58.496Z,100.00
2022-11-12T05:59:25.558Z,100.00
2022-11-12T06:01:52.846Z,100.00
2022-11-12T06:04:19.857Z,100.00
2022-11-12T06:06:46.923Z,100.00
2022-11-12T06:09:14.275Z,100.00
2022-11-12T06:11:41.399Z,100.00
2022-11-12T06:14:09.776Z,100.00
2022-11-12T06:16:36.901Z,100.00
2022-11-12T06:19:04.945Z,100.00
2022-11-12T06:21:32.084Z,100.00
2022-11-12T06:23:59.737Z,100.00
2022-11-12T06:26:27.366Z,100.00
2022-11-12T06:28:55.530Z,100.00
2022-11-12T06:31:23.000Z,100.00
2022-11-12T06:33:50.042Z,100.00
2022-11-12T06:36:18.039Z,100.00
2022-11-12T06:38:45.486Z,100.00
2022-11-12T06:41:12.802Z,100.00
2022-11-12T06:43:41.864Z,100.00
2022-11-12T06:46:11.270Z,100.00
2022-11-12T06:48:38.368Z,100.00
2022-11-12T06:51:06.259Z,100.00
2022-11-12T06:53:33.284Z,100.00
2022-11-12T06:56:06.921Z,99.70
2022-11-12T06:58:34.257Z,99.18
2022-11-12T07:01:19.468Z,98.86
2022-11-12T07:03:47.083Z,98.46
2022-11-12T07:06:14.971Z,98.18
2022-11-12T07:08:42.392Z,97.87
2022-11-12T07:11:09.727Z,97.52
2022-11-12T07:13:36.878Z,98.08
2022-11-12T07:16:04.480Z,98.19
2022-11-12T07:18:32.917Z,98.94
2022-11-12T07:21:04.260Z,98.91
2022-11-12T07:23:32.601Z,98.41
2022-11-12T07:26:00.236Z,98.71
2022-11-12T07:28:29.256Z,99.34
2022-11-12T07:31:00.941Z,99.42
2022-11-12T07:33:28.182Z,99.08
2022-11-12T07:36:05.503Z,98.67
2022-11-12T07:38:33.827Z,98.29
2022-11-12T07:41:01.572Z,97.48
2022-11-12T07:43:30.207Z,97.38
2022-11-12T07:45:58.157Z,97.47
2022-11-12T07:48:25.835Z,96.50
2022-11-12T07:50:53.217Z,96.28
2022-11-12T07:53:20.679Z,95.37
2022-11-12T07:55:55.173Z,94.59
2022-11-12T07:58:23.095Z,93.91
2022-11-12T08:00:51.178Z,92.41
2022-11-12T08:03:18.639Z,92.45
2022-11-12T08:05:46.619Z,91.70
2022-11-12T08:08:13.836Z,91.55
2022-11-12T08:10:41.115Z,92.04
2022-11-12T08:13:08.642Z,92.32
2022-11-12T08:15:35.680Z,89.28
2022-11-12T08:18:03.214Z,87.40
2022-11-12T08:20:30.339Z,84.67
2022-11-12T08:22:59.939Z,81.73
2022-11-12T08:25:27.448Z,81.90
2022-11-12T08:27:58.198Z,80.13
2022-11-12T08:30:28.515Z,79.63
2022-11-12T08:33:05.001Z,80.93
2022-11-12T08:35:32.321Z,84.85
2022-11-12T08:37:59.926Z,86.54
2022-11-12T08:40:27.478Z,87.90
2022-11-12T08:43:01.480Z,88.13
2022-11-12T08:45:28.705Z,81.59
2022-11-12T08:48:02.203Z,77.07
2022-11-12T08:50:29.671Z,75.23
2022-11-12T08:53:03.887Z,73.41
2022-11-12T08:55:35.838Z,76.06
2022-11-12T08:58:03.814Z,74.70
2022-11-12T09:00:35.331Z,75.75
2022-11-12T09:03:02.842Z,73.89
2022-11-12T09:05:29.921Z,72.49
2022-11-12T09:08:07.557Z,69.53
2022-11-12T09:10:34.642Z,68.76
2022-11-12T09:13:21.063Z,68.76
2022-11-12T09:15:48.644Z,70.73
2022-11-12T09:18:17.098Z,73.12
2022-11-12T09:20:45.040Z,74.54
2022-11-12T09:23:13.003Z,78.12
2022-11-12T09:25:40.130Z,77.99
2022-11-12T09:28:16.717Z,73.29
2022-11-12T09:30:46.568Z,69.68
2022-11-12T09:33:14.595Z,74.51
2022-11-12T09:35:43.900Z,79.62
2022-11-12T09:38:11.427Z,81.18
2022-11-12T09:40:42.113Z,81.47
2022-11-12T09:43:16.415Z,81.45
2022-11-12T09:45:50.333Z,77.04
2022-11-12T09:48:32.647Z,71.89
2022-11-12T09:50:59.793Z,73.84
2022-11-12T09:53:43.958Z,77.69
2022-11-12T09:56:12.300Z,77.14
2022-11-12T09:58:39.956Z,76.16
2022-11-12T10:01:11.385Z,75.28
2022-11-12T10:03:56.559Z,77.10
2022-11-12T10:06:24.037Z,81.90
2022-11-12T10:08:51.704Z,83.77
2022-11-12T10:11:24.569Z,84.53
2022-11-12T10:14:10.393Z,83.68
2022-11-12T10:16:43.342Z,82.19
2022-11-12T10:19:10.528Z,78.87
2022-11-12T10:21:41.449Z,78.15
2022-11-12T10:24:08.878Z,79.06
2022-11-12T10:26:35.954Z,80.23
2022-11-12T10:29:23.213Z,82.13
2022-11-12T10:31:50.292Z,83.75
2022-11-12T10:34:19.179Z,84.88
2022-11-12T10:36:56.883Z,84.90
2022-11-12T10:39:30.687Z,85.04
2022-11-12T10:42:24.355Z,85.84
2022-11-12T10:44:52.117Z,86.44
2022-11-12T10:47:30.595Z,84.53
2022-11-12T10:50:03.945Z,83.06
2022-11-12T10:52:31.064Z,82.98
2022-11-12T10:55:14.781Z,84.12
2022-11-12T10:57:41.956Z,83.72
2022-11-12T11:00:17.063Z,83.89
2022-11-12T11:02:48.737Z,82.80
2022-11-12T11:05:28.052Z,80.18
2022-11-12T11:07:55.226Z,81.48
2022-11-12T11:10:23.666Z,83.16
2022-11-12T11:13:09.057Z,84.01
2022-11-12T11:15:37.988Z,84.65
2022-11-12T11:18:08.738Z,85.31
2022-11-12T11:20:44.027Z,85.65
2022-11-12T11:23:17.211Z,85.29
2022-11-12T11:25:44.271Z,85.92
2022-11-12T11:28:14.308Z,86.74
2022-11-12T11:30:59.799Z,86.61
2022-11-12T11:33:32.018Z,86.98
2022-11-12T11:36:05.170Z,87.44
2022-11-12T11:38:35.094Z,87.11
2022-11-12T11:41:16.956Z,87.21
2022-11-12T11:43:45.631Z,87.62
2022-11-12T11:46:31.440Z,88.13
2022-11-12T11:49:04.578Z,88.22
2022-11-12T11:51:51.301Z,88.48
2022-11-12T11:54:55.788Z,88.63
2022-11-12T11:57:24.032Z,88.81
2022-11-12T12:00:09.985Z,88.54
2022-11-12T12:02:43.872Z,88.71
2022-11-12T12:05:10.968Z,88.13
2022-11-12T12:07:41.364Z,87.10
2022-11-12T12:10:14.493Z,85.97
2022-11-12T12:12:51.306Z,86.22
2022-11-12T12:15:31.129Z,86.48
2022-11-12T12:17:59.629Z,87.09
2022-11-12T12:20:30.539Z,87.67
2022-11-12T12:23:05.969Z,88.19
2022-11-12T12:25:35.316Z,88.62
2022-11-12T12:28:04.288Z,87.87
2022-11-12T12:30:31.794Z,88.14
2022-11-12T12:33:06.987Z,87.93
2022-11-12T12:35:34.799Z,88.58
2022-11-12T12:38:05.311Z,88.81
2022-11-12T12:40:33.898Z,89.04
2022-11-12T12:43:02.647Z,89.28
2022-11-12T12:45:41.567Z,89.04
2022-11-12T12:48:19.570Z,89.49
2022-11-12T12:50:48.810Z,89.52
2022-11-12T12:53:16.785Z,90.02
2022-11-12T12:55:44.902Z,90.64
2022-11-12T12:58:16.451Z,90.84
2022-11-12T13:00:47.727Z,90.80
2022-11-12T13:03:14.837Z,91.59
2022-11-12T13:05:41.929Z,91.78
2022-11-12T13:08:13.109Z,92.23
2022-11-12T13:10:41.452Z,92.28
2022-11-12T13:13:17.534Z,91.93
2022-11-12T13:15:55.611Z,91.36
2022-11-12T13:18:38.098Z,91.52
2022-11-12T13:21:10.553Z,91.88
2022-11-12T13:24:00.731Z,92.02
2022-11-12T13:26:57.422Z,92.17
2022-11-12T13:29:27.529Z,92.88
2022-11-12T13:32:14.153Z,93.75
2022-11-12T13:34:41.782Z,94.26
2022-11-12T13:37:12.546Z,95.10
2022-11-12T13:39:41.231Z,95.39
2022-11-12T13:42:33.596Z,95.47
2022-11-12T13:45:00.879Z,95.83
2022-11-12T13:47:29.460Z,95.87
2022-11-12T13:49:57.183Z,96.09
2022-11-12T13:52:24.211Z,96.63
2022-11-12T13:55:04.440Z,96.99
2022-11-12T13:57:32.901Z,97.19
2022-11-12T14:00:10.331Z,97.75
2022-11-12T14:02:41.364Z,98.04
2022-11-12T14:05:13.390Z,98.20
2022-11-12T14:07:43.892Z,98.34
2022-11-12T14:10:30.271Z,98.98
2022-11-12T14:13:15.465Z,99.14
2022-11-12T14:16:01.849Z,99.00
2022-11-12T14:18:32.213Z,99.27
2022-11-12T14:21:01.941Z,99.64
2022-11-12T14:23:29.169Z,99.70
2022-11-12T14:25:56.538Z,100.00
2022-11-12T14:28:24.473Z,100.00
2022-11-12T14:30:51.691Z,100.00
2022-11-12T14:33:21.129Z,100.00
2022-11-12T14:35:48.702Z,100.00
2022-11-12T14:38:18.891Z,100.00
2022-11-12T14:40:50.283Z,100.00
2022-11-12T14:43:27.929Z,100.00
2022-11-12T14:45:55.764Z,100.00
2022-11-12T14:48:23.908Z,100.00
2022-11-12T14:50:52.156Z,100.00
2022-11-12T14:53:25.187Z,100.00
2022-11-12T14:55:53.958Z,100.00
2022-11-12T14:58:21.498Z,100.00
2022-11-12T15:00:50.035Z,100.00
2022-11-12T15:03:35.815Z,100.00
2022-11-12T15:06:02.845Z,100.00
2022-11-12T15:08:30.774Z,100.00
2022-11-12T15:10:58.360Z,100.00
2022-11-12T15:13:27.023Z,100.00
2022-11-12T15:15:58.676Z,100.00
2022-11-12T15:18:26.584Z,100.00
2022-11-12T15:21:05.922Z,100.00
2022-11-12T15:23:32.961Z,100.00
2022-11-12T15:26:00.309Z,100.00
2022-11-12T15:28:27.755Z,100.00
2022-11-12T15:31:24.273Z,100.00
2022-11-12T15:33:51.298Z,100.00
2022-11-12T15:36:19.213Z,100.00
2022-11-12T15:38:51.325Z,100.00
2022-11-12T15:41:22.635Z,100.00
2022-11-12T15:43:50.152Z,100.00
2022-11-12T15:46:17.300Z,100.00
2022-11-12T15:48:44.407Z,100.00
2022-11-12T15:51:12.000Z,100.00
2022-11-12T15:53:39.328Z,100.00
2022-11-12T15:56:08.733Z,100.00
2022-11-12T15:58:37.408Z,100.00
2022-11-12T16:01:05.286Z,100.00
2022-11-12T16:03:32.517Z,100.00
2022-11-12T16:06:07.206Z,100.00
2022-11-12T16:08:35.952Z,100.00
2022-11-12T16:11:03.102Z,100.00
2022-11-12T16:13:31.402Z,100.00
2022-11-12T16:15:58.435Z,100.00
2022-11-12T16:18:25.525Z,100.00
2022-11-12T16:20:52.854Z,100.00
2022-11-12T16:23:19.864Z,100.00
2022-11-12T16:25:48.010Z,100.00
2022-11-12T16:28:15.859Z,100.00
2022-11-12T16:30:43.751Z,100.00
2022-11-12T16:33:11.298Z,100.00
2022-11-12T16:35:38.813Z,100.00
2022-11-12T16:38:15.839Z,100.00
2022-11-12T16:40:42.978Z,100.00
2022-11-12T16:43:10.419Z,100.00
2022-11-12T16:45:39.194Z,100.00
2022-11-12T16:48:13.848Z,100.00
2022-11-12T16:50:41.014Z,100.00
2022-11-12T16:53:08.054Z,100.00
2022-11-12T16:55:35.111Z,100.00
2022-11-12T16:58:02.239Z,100.00
2022-11-12T17:00:29.908Z,100.00
2022-11-12T17:02:57.274Z,100.00
2022-11-12T17:05:24.888Z,100.00
2022-11-12T17:07:55.825Z,100.00
2022-11-12T17:10:25.990Z,100.00
2022-11-12T17:12:53.703Z,100.00
2022-11-12T17:15:20.866Z,100.00
2022-11-12T17:17:47.901Z,100.00
2022-11-12T17:20:15.022Z,100.00
2022-11-12T17:22:42.391Z,100.00
2022-11-12T17:25:10.024Z,100.00
2022-11-12T17:27:37.098Z,100.00
2022-11-12T17:30:05.367Z,100.00
2022-11-12T17:32:32.766Z,100.00
2022-11-12T17:35:00.589Z,100.00
2022-11-12T17:37:27.665Z,100.00
2022-11-12T17:39:55.662Z,100.00
2022-11-12T17:42:22.975Z,100.00
2022-11-12T17:44:50.144Z,100.00
2022-11-12T17:47:19.059Z,100.00
2022-11-12T17:49:46.157Z,100.00
2022-11-12T17:52:13.431Z,100.00
2022-11-12T17:54:40.946Z,100.00
2022-11-12T17:57:07.967Z,100.00
2022-11-12T17:59:35.166Z,100.00
2022-11-12T18:02:02.190Z,100.00
2022-11-12T18:04:30.944Z,100.00
2022-11-12T18:06:58.344Z,100.00
2022-11-12T18:09:25.693Z,100.00
2022-11-12T18:11:56.813Z,100.00
2022-11-12T18:14:24.620Z,100.00
2022-11-12T18:16:51.908Z,100.00
2022-11-12T18:19:20.366Z,100.00
2022-11-12T18:21:47.568Z,100.00
2022-11-12T18:24:15.315Z,100.00
2022-11-12T18:26:44.315Z,100.00
2022-11-12T18:29:12.558Z,100.00
2022-11-12T18:31:40.708Z,100.00
2022-11-12T18:34:09.866Z,100.00
2022-11-12T18:36:37.717Z,100.00
2022-11-12T18:39:05.060Z,100.00
2022-11-12T18:41:33.848Z,100.00
2022-11-12T18:44:00.964Z,100.00
2022-11-12T18:46:29.461Z,100.00
2022-11-12T18:48:56.539Z,100.00
2022-11-12T18:51:23.648Z,100.00
2022-11-12T18:53:50.674Z,100.00
2022-11-12T18:56:18.477Z,100.00
2022-11-12T18:58:45.632Z,100.00
2022-11-12T19:01:16.875Z,100.00
2022-11-12T19:03:44.143Z,100.00
2022-11-12T19:06:12.612Z,100.00
2022-11-12T19:08:39.795Z,100.00
2022-11-12T19:11:07.938Z,100.00
2022-11-12T19:13:36.050Z,100.00
2022-11-12T19:16:04.015Z,100.00
2022-11-12T19:18:31.409Z,100.00
2022-11-12T19:21:18.975Z,100.00
2022-11-12T19:23:50.102Z,100.00
2022-11-12T19:26:20.280Z,100.00
2022-11-12T19:28:47.317Z,100.00
2022-11-12T19:31:15.221Z,100.00
2022-11-12T19:33:42.242Z,100.00
2022-11-12T19:36:10.381Z,100.00
2022-11-12T19:38:37.476Z,100.00
2022-11-12T19:41:08.083Z,100.00
2022-11-12T19:43:35.153Z,100.00
2022-11-12T19:46:02.290Z,100.00
2022-11-12T19:48:31.208Z,100.00
2022-11-12T19:51:02.849Z,100.00
2022-11-12T19:53:30.914Z,100.00
2022-11-12T19:56:01.925Z,100.00
2022-11-12T19:58:29.774Z,100.00
2022-11-12T20:01:07.287Z,100.00
2022-11-12T20:03:34.573Z,100.00
2022-11-12T20:06:02.283Z,100.00
2022-11-12T20:08:29.873Z,100.00
2022-11-12T20:10:57.240Z,100.00
2022-11-12T20:13:24.666Z,100.00
2022-11-12T20:15:51.984Z,100.00
2022-11-12T20:18:20.497Z,100.00
2022-11-12T20:20:51.665Z,100.00
2022-11-12T20:23:18.815Z,100.00
2022-11-12T20:25:46.221Z,100.00
2022-11-12T20:28:13.321Z,100.00
2022-11-12T20:30:42.332Z,100.00
2022-11-12T20:33:09.391Z,100.00
2022-11-12T20:35:36.913Z,100.00
2022-11-12T20:38:04.250Z,100.00
2022-11-12T20:40:31.939Z,100.00
2022-11-12T20:42:59.071Z,100.00
2022-11-12T20:45:27.154Z,100.00
2022-11-12T20:47:57.388Z,100.00
2022-11-12T20:50:24.528Z,100.00
2022-11-12T20:52:51.684Z,100.00
2022-11-12T20:55:18.724Z,100.00
2022-11-12T20:57:46.292Z,100.00
2022-11-12T21:00:14.831Z,100.00
2022-11-12T21:02:44.459Z,100.00
2022-11-12T21:05:11.581Z,100.00
2022-11-12T21:07:38.620Z,100.00
2022-11-12T21:10:06.146Z,100.00
2022-11-12T21:12:33.252Z,100.00
2022-11-12T21:15:00.296Z,100.00
2022-11-12T21:17:27.384Z,100.00
2022-11-12T21:19:54.394Z,100.00
2022-11-12T21:22:21.539Z,100.00
2022-11-12T21:24:48.673Z,100.00
2022-11-12T21:27:17.480Z,100.00
2022-11-12T21:29:44.755Z,100.00
2022-11-12T21:32:11.858Z,100.00
2022-11-12T21:34:38.968Z,100.00
2022-11-12T21:37:06.233Z,100.00
2022-11-12T21:39:33.277Z,100.00
2022-11-12T21:42:00.336Z,100.00
2022-11-12T21:44:27.437Z,100.00
2022-11-12T21:46:54.638Z,100.00
2022-11-12T21:49:21.691Z,100.00
2022-11-12T21:51:48.734Z,100.00
2022-11-12T21:54:15.857Z,100.00
2022-11-12T21:56:44.062Z,100.00
2022-11-12T21:59:11.311Z,100.00
2022-11-12T22:01:40.671Z,100.00
2022-11-12T22:04:07.890Z,100.00
2022-11-12T22:06:35.900Z,100.00
2022-11-12T22:09:03.007Z,100.00
2022-11-12T22:11:30.097Z,100.00
2022-11-12T22:13:57.269Z,100.00
2022-11-12T22:16:25.620Z,100.00
2022-11-12T22:18:54.061Z,100.00
2022-11-12T22:21:22.171Z,100.00
2022-11-12T22:23:49.342Z,100.00
2022-11-12T22:26:17.511Z,100.00
2022-11-12T22:28:44.917Z,100.00
2022-11-12T22:31:13.069Z,100.00
2022-11-12T22:33:40.406Z,100.00
2022-11-12T22:36:17.465Z,100.00
2022-11-12T22:38:45.116Z,100.00
2022-11-12T22:41:16.240Z,100.00
2022-11-12T22:43:43.999Z,100.00
2022-11-12T22:46:11.773Z,100.00
2022-11-12T22:48:38.987Z,100.00
2022-11-12T22:51:07.320Z,100.00
2022-11-12T22:53:34.857Z,100.00
2022-11-12T22:56:03.212Z,100.00
2022-11-12T22:58:30.632Z,100.00
2022-11-12T23:00:58.278Z,100.00
2022-11-12T23:03:25.411Z,100.00
2022-11-12T23:05:56.740Z,100.00
2022-11-12T23:08:24.285Z,100.00
2022-11-12T23:10:52.946Z,100.00
2022-11-12T23:13:20.738Z,100.00
2022-11-12T23:15:48.745Z,100.00
2022-11-12T23:18:16.193Z,100.00
2022-11-12T23:20:44.270Z,100.00
2022-11-12T23:23:11.423Z,100.00
2022-11-12T23:25:38.626Z,100.00
2022-11-12T23:28:07.751Z,100.00
2022-11-12T23:30:35.292Z,100.00
2022-11-12T23:33:02.891Z,100.00
2022-11-12T23:35:33.138Z,100.00
2022-11-12T23:38:00.211Z,100.00
2022-11-12T23:40:30.924Z,100.00
2022-11-12T23:42:59.081Z,100.00
2022-11-12T23:45:26.097Z,100.00
2022-11-12T23:47:55.544Z,100.00
2022-11-12T23:50:22.638Z,100.00
2022-11-12T23:52:50.034Z,100.00
2022-11-12T23:55:17.071Z,100.00
2022-11-12T23:57:44.746Z,100.00
